sensor_id;sensor_type;location;lat;lon;timestamp;temperature;humidity
45012;DHT22;63444;48.148;11.542;2022-11-15T00:00:46;7.30;99.90
45012;DHT22;63444;48.148;11.542;2022-11-15T00:03:16;7.20;99.90
45012;DHT22;63444;48.148;11.542;2022-11-15T00:05:42;7.20;99.90
45012;DHT22;63444;48.148;11.542;2022-11-15T00:08:08;7.10;99.90
45012;DHT22;63444;48.148;11.542;2022-11-15T00:10:34;7.10;99.90
45012;DHT22;63444;48.148;11.542;2022-11-15T00:13:00;7.20;99.90
45012;DHT22;63444;48.148;11.542;2022-11-15T00:15:25;7.10;99.90
45012;DHT22;63444;48.148;11.542;2022-11-15T00:17:51;7.10;99.90
45012;DHT22;63444;48.148;11.542;2022-11-15T00:20:17;7.20;99.90
45012;DHT22;63444;48.148;11.542;2022-11-15T00:22:43;7.10;99.90
45012;DHT22;63444;48.148;11.542;2022-11-15T00:25:08;7.20;99.90
45012;DHT22;63444;48.148;11.542;2022-11-15T00:27:34;7.20;99.90
45012;DHT22;63444;48.148;11.542;2022-11-15T00:30:00;7.20;99.90
45012;DHT22;63444;48.148;11.542;2022-11-15T00:32:26;7.20;99.90
45012;DHT22;63444;48.148;11.542;2022-11-15T00:34:52;7.10;99.90
45012;DHT22;63444;48.148;11.542;2022-11-15T00:37:17;7.00;99.90
45012;DHT22;63444;48.148;11.542;2022-11-15T00:39:43;7.10;99.90
45012;DHT22;63444;48.148;11.542;2022-11-15T00:42:08;7.00;99.90
45012;DHT22;63444;48.148;11.542;2022-11-15T00:44:34;7.00;99.90
45012;DHT22;63444;48.148;11.542;2022-11-15T00:46:59;7.00;99.90
45012;DHT22;63444;48.148;11.542;2022-11-15T00:49:25;7.00;99.90
45012;DHT22;63444;48.148;11.542;2022-11-15T00:51:50;7.00;99.90
45012;DHT22;63444;48.148;11.542;2022-11-15T00:54:16;7.00;99.90
45012;DHT22;63444;48.148;11.542;2022-11-15T00:56:41;7.10;99.90
45012;DHT22;63444;48.148;11.542;2022-11-15T00:59:07;7.10;99.90
45012;DHT22;63444;48.148;11.542;2022-11-15T01:01:34;7.10;99.90
45012;DHT22;63444;48.148;11.542;2022-11-15T01:03:59;7.00;99.90
45012;DHT22;63444;48.148;11.542;2022-11-15T01:06:25;7.00;99.90
45012;DHT22;63444;48.148;11.542;2022-11-15T01:08:51;7.00;99.90
45012;DHT22;63444;48.148;11.542;2022-11-15T01:11:16;7.00;99.90
45012;DHT22;63444;48.148;11.542;2022-11-15T01:13:42;6.90;99.90
45012;DHT22;63444;48.148;11.542;2022-11-15T01:16:12;6.90;99.90
45012;DHT22;63444;48.148;11.542;2022-11-15T01:18:39;6.90;99.90
45012;DHT22;63444;48.148;11.542;2022-11-15T01:21:06;6.90;99.90
45012;DHT22;63444;48.148;11.542;2022-11-15T01:23:32;6.90;99.90
45012;DHT22;63444;48.148;11.542;2022-11-15T01:26:02;6.90;99.90
45012;DHT22;63444;48.148;11.542;2022-11-15T01:28:32;6.90;99.90
45012;DHT22;63444;48.148;11.542;2022-11-15T01:30:59;6.90;99.90
45012;DHT22;63444;48.148;11.542;2022-11-15T01:33:25;6.90;99.90
45012;DHT22;63444;48.148;11.542;2022-11-15T01:35:50;6.90;99.90
45012;DHT22;63444;48.148;11.542;2022-11-15T01:38:16;6.90;99.90
45012;DHT22;63444;48.148;11.542;2022-11-15T01:40:42;6.80;99.90
45012;DHT22;63444;48.148;11.542;2022-11-15T01:43:25;6.80;99.90
45012;DHT22;63444;48.148;11.542;2022-11-15T01:45:59;6.70;99.90
45012;DHT22;63444;48.148;11.542;2022-11-15T01:48:30;6.60;99.90
45012;DHT22;63444;48.148;11.542;2022-11-15T01:50:57;6.60;99.90
45012;DHT22;63444;48.148;11.542;2022-11-15T01:53:25;6.60;99.90
45012;DHT22;63444;48.148;11.542;2022-11-15T01:55:52;6.60;99.90
45012;DHT22;63444;48.148;11.542;2022-11-15T01:58:18;6.50;99.90
45012;DHT22;63444;48.148;11.542;2022-11-15T02:00:43;6.50;99.90
45012;DHT22;63444;48.148;11.542;2022-11-15T02:03:09;6.50;99.90
45012;DHT22;63444;48.148;11.542;2022-11-15T02:05:36;6.50;99.90
45012;DHT22;63444;48.148;11.542;2022-11-15T02:08:02;6.60;99.90
45012;DHT22;63444;48.148;11.542;2022-11-15T02:10:28;6.60;99.90
45012;DHT22;63444;48.148;11.542;2022-11-15T02:12:54;6.60;99.90
45012;DHT22;63444;48.148;11.542;2022-11-15T02:15:23;6.60;99.90
45012;DHT22;63444;48.148;11.542;2022-11-15T02:17:58;6.60;99.90
45012;DHT22;63444;48.148;11.542;2022-11-15T02:29:05;6.50;99.90
45012;DHT22;63444;48.148;11.542;2022-11-15T02:31:45;6.60;99.90
45012;DHT22;63444;48.148;11.542;2022-11-15T02:34:34;6.60;99.90
45012;DHT22;63444;48.148;11.542;2022-11-15T02:37:34;6.60;99.90
45012;DHT22;63444;48.148;11.542;2022-11-15T02:42:36;6.50;99.90
45012;DHT22;63444;48.148;11.542;2022-11-15T02:45:33;6.60;99.90
45012;DHT22;63444;48.148;11.542;2022-11-15T02:48:01;6.50;99.90
45012;DHT22;63444;48.148;11.542;2022-11-15T02:50:29;6.50;99.90
45012;DHT22;63444;48.148;11.542;2022-11-15T02:52:57;6.50;99.90
45012;DHT22;63444;48.148;11.542;2022-11-15T03:01:12;6.50;99.90
45012;DHT22;63444;48.148;11.542;2022-11-15T03:06:42;6.50;99.90
45012;DHT22;63444;48.148;11.542;2022-11-15T03:11:52;6.50;99.90
45012;DHT22;63444;48.148;11.542;2022-11-15T03:14:30;6.50;99.90
45012;DHT22;63444;48.148;11.542;2022-11-15T03:19:48;6.40;99.90
45012;DHT22;63444;48.148;11.542;2022-11-15T03:22:18;6.40;99.90
45012;DHT22;63444;48.148;11.542;2022-11-15T03:24:47;6.40;99.90
45012;DHT22;63444;48.148;11.542;2022-11-15T03:27:18;6.40;99.90
45012;DHT22;63444;48.148;11.542;2022-11-15T03:29:51;6.40;99.90
45012;DHT22;63444;48.148;11.542;2022-11-15T03:32:22;6.30;99.90
45012;DHT22;63444;48.148;11.542;2022-11-15T03:35:02;6.40;99.90
45012;DHT22;63444;48.148;11.542;2022-11-15T03:37:44;6.40;99.90
45012;DHT22;63444;48.148;11.542;2022-11-15T03:40:11;6.40;99.90
45012;DHT22;63444;48.148;11.542;2022-11-15T03:42:51;6.40;99.90
45012;DHT22;63444;48.148;11.542;2022-11-15T03:45:26;6.30;99.90
45012;DHT22;63444;48.148;11.542;2022-11-15T03:48:16;6.20;99.90
45012;DHT22;63444;48.148;11.542;2022-11-15T03:50:45;6.20;99.90
45012;DHT22;63444;48.148;11.542;2022-11-15T03:53:11;6.10;99.90
45012;DHT22;63444;48.148;11.542;2022-11-15T03:55:37;6.10;99.90
45012;DHT22;63444;48.148;11.542;2022-11-15T03:58:03;6.10;99.90
45012;DHT22;63444;48.148;11.542;2022-11-15T04:00:29;6.10;99.90
45012;DHT22;63444;48.148;11.542;2022-11-15T04:02:54;6.10;99.90
45012;DHT22;63444;48.148;11.542;2022-11-15T04:05:20;6.10;99.90
45012;DHT22;63444;48.148;11.542;2022-11-15T04:07:46;6.10;99.90
45012;DHT22;63444;48.148;11.542;2022-11-15T04:10:12;6.10;99.90
45012;DHT22;63444;48.148;11.542;2022-11-15T04:12:40;6.10;99.90
45012;DHT22;63444;48.148;11.542;2022-11-15T04:15:10;6.10;99.90
45012;DHT22;63444;48.148;11.542;2022-11-15T04:17:50;6.10;99.90
45012;DHT22;63444;48.148;11.542;2022-11-15T04:20:22;6.20;99.90
45012;DHT22;63444;48.148;11.542;2022-11-15T04:23:15;6.20;99.90
45012;DHT22;63444;48.148;11.542;2022-11-15T04:26:03;6.20;99.90
45012;DHT22;63444;48.148;11.542;2022-11-15T04:28:29;6.20;99.90
45012;DHT22;63444;48.148;11.542;2022-11-15T04:30:55;6.20;99.90
45012;DHT22;63444;48.148;11.542;2022-11-15T04:33:22;6.10;99.90
45012;DHT22;63444;48.148;11.542;2022-11-15T04:35:47;6.10;99.90
45012;DHT22;63444;48.148;11.542;2022-11-15T04:38:34;6.10;99.90
45012;DHT22;63444;48.148;11.542;2022-11-15T04:40:59;6.10;99.90
45012;DHT22;63444;48.148;11.542;2022-11-15T04:43:25;6.00;99.90
45012;DHT22;63444;48.148;11.542;2022-11-15T04:45:50;6.00;99.90
45012;DHT22;63444;48.148;11.542;2022-11-15T04:48:16;5.90;99.90
45012;DHT22;63444;48.148;11.542;2022-11-15T04:50:41;5.90;99.90
45012;DHT22;63444;48.148;11.542;2022-11-15T04:53:07;6.00;99.90
45012;DHT22;63444;48.148;11.542;2022-11-15T04:55:32;6.00;99.90
45012;DHT22;63444;48.148;11.542;2022-11-15T04:58:00;6.00;99.90
45012;DHT22;63444;48.148;11.542;2022-11-15T05:00:28;5.90;99.90
45012;DHT22;63444;48.148;11.542;2022-11-15T05:02:54;5.90;99.90
45012;DHT22;63444;48.148;11.542;2022-11-15T05:05:38;5.90;99.90
45012;DHT22;63444;48.148;11.542;2022-11-15T05:08:04;5.90;99.90
45012;DHT22;63444;48.148;11.542;2022-11-15T05:10:30;5.80;99.90
45012;DHT22;63444;48.148;11.542;2022-11-15T05:12:55;5.70;99.90
45012;DHT22;63444;48.148;11.542;2022-11-15T05:15:21;5.60;99.90
45012;DHT22;63444;48.148;11.542;2022-11-15T05:17:47;5.60;99.90
45012;DHT22;63444;48.148;11.542;2022-11-15T05:20:12;5.60;99.90
45012;DHT22;63444;48.148;11.542;2022-11-15T05:22:39;5.60;99.90
45012;DHT22;63444;48.148;11.542;2022-11-15T05:25:05;5.60;99.90
45012;DHT22;63444;48.148;11.542;2022-11-15T05:27:31;5.60;99.90
45012;DHT22;63444;48.148;11.542;2022-11-15T05:29:56;5.60;99.90
45012;DHT22;63444;48.148;11.542;2022-11-15T05:32:22;5.60;99.90
45012;DHT22;63444;48.148;11.542;2022-11-15T05:34:47;5.60;99.90
45012;DHT22;63444;48.148;11.542;2022-11-15T05:37:14;5.70;99.90
45012;DHT22;63444;48.148;11.542;2022-11-15T05:39:39;5.70;99.90
45012;DHT22;63444;48.148;11.542;2022-11-15T05:42:15;5.70;99.90
45012;DHT22;63444;48.148;11.542;2022-11-15T05:44:48;5.70;99.90
45012;DHT22;63444;48.148;11.542;2022-11-15T05:47:21;5.70;99.90
45012;DHT22;63444;48.148;11.542;2022-11-15T05:49:49;5.70;99.90
45012;DHT22;63444;48.148;11.542;2022-11-15T05:52:17;5.70;99.90
45012;DHT22;63444;48.148;11.542;2022-11-15T05:54:45;5.70;99.90
45012;DHT22;63444;48.148;11.542;2022-11-15T05:57:11;5.70;99.90
45012;DHT22;63444;48.148;11.542;2022-11-15T05:59:37;5.70;99.90
45012;DHT22;63444;48.148;11.542;2022-11-15T06:02:03;5.70;99.90
45012;DHT22;63444;48.148;11.542;2022-11-15T06:04:29;5.70;99.90
45012;DHT22;63444;48.148;11.542;2022-11-15T06:06:54;5.70;99.90
45012;DHT22;63444;48.148;11.542;2022-11-15T06:09:20;5.70;99.90
45012;DHT22;63444;48.148;11.542;2022-11-15T06:11:45;5.80;99.90
45012;DHT22;63444;48.148;11.542;2022-11-15T06:14:11;5.70;99.90
45012;DHT22;63444;48.148;11.542;2022-11-15T06:16:36;5.70;99.90
45012;DHT22;63444;48.148;11.542;2022-11-15T06:19:02;5.70;99.90
45012;DHT22;63444;48.148;11.542;2022-11-15T06:21:27;5.70;99.90
45012;DHT22;63444;48.148;11.542;2022-11-15T06:23:54;5.70;99.90
45012;DHT22;63444;48.148;11.542;2022-11-15T06:26:20;5.70;99.90
45012;DHT22;63444;48.148;11.542;2022-11-15T06:28:46;5.70;99.90
45012;DHT22;63444;48.148;11.542;2022-11-15T06:31:11;5.70;99.90
45012;DHT22;63444;48.148;11.542;2022-11-15T06:33:38;5.70;99.90
45012;DHT22;63444;48.148;11.542;2022-11-15T06:36:06;5.70;99.90
45012;DHT22;63444;48.148;11.542;2022-11-15T06:38:33;5.60;99.90
45012;DHT22;63444;48.148;11.542;2022-11-15T06:41:05;5.60;99.90
45012;DHT22;63444;48.148;11.542;2022-11-15T06:43:31;5.60;99.90
45012;DHT22;63444;48.148;11.542;2022-11-15T06:45:58;5.60;99.90
45012;DHT22;63444;48.148;11.542;2022-11-15T06:48:24;5.60;99.90
45012;DHT22;63444;48.148;11.542;2022-11-15T06:50:56;5.70;99.90
45012;DHT22;63444;48.148;11.542;2022-11-15T06:53:23;5.70;99.90
45012;DHT22;63444;48.148;11.542;2022-11-15T06:55:49;5.70;99.90
45012;DHT22;63444;48.148;11.542;2022-11-15T06:58:14;5.70;99.90
45012;DHT22;63444;48.148;11.542;2022-11-15T07:00:40;5.70;99.90
45012;DHT22;63444;48.148;11.542;2022-11-15T07:03:06;5.70;99.90
45012;DHT22;63444;48.148;11.542;2022-11-15T07:05:32;5.70;99.90
45012;DHT22;63444;48.148;11.542;2022-11-15T07:07:58;5.80;99.90
45012;DHT22;63444;48.148;11.542;2022-11-15T07:10:24;5.70;99.90
45012;DHT22;63444;48.148;11.542;2022-11-15T07:12:52;5.80;99.90
45012;DHT22;63444;48.148;11.542;2022-11-15T07:15:19;5.80;99.90
45012;DHT22;63444;48.148;11.542;2022-11-15T07:17:45;5.80;99.90
45012;DHT22;63444;48.148;11.542;2022-11-15T07:20:11;5.80;99.90
45012;DHT22;63444;48.148;11.542;2022-11-15T07:22:37;5.80;99.90
45012;DHT22;63444;48.148;11.542;2022-11-15T07:25:04;5.90;99.90
45012;DHT22;63444;48.148;11.542;2022-11-15T07:27:29;5.90;99.90
45012;DHT22;63444;48.148;11.542;2022-11-15T07:29:55;5.90;99.90
45012;DHT22;63444;48.148;11.542;2022-11-15T07:32:20;5.90;99.90
45012;DHT22;63444;48.148;11.542;2022-11-15T07:34:46;5.90;99.90
45012;DHT22;63444;48.148;11.542;2022-11-15T07:37:12;6.00;99.90
45012;DHT22;63444;48.148;11.542;2022-11-15T07:39:38;6.00;99.90
45012;DHT22;63444;48.148;11.542;2022-11-15T07:42:03;5.90;99.90
45012;DHT22;63444;48.148;11.542;2022-11-15T07:44:49;5.90;99.90
45012;DHT22;63444;48.148;11.542;2022-11-15T07:47:14;6.00;99.90
45012;DHT22;63444;48.148;11.542;2022-11-15T07:49:40;6.00;99.90
45012;DHT22;63444;48.148;11.542;2022-11-15T07:52:05;6.10;99.90
45012;DHT22;63444;48.148;11.542;2022-11-15T07:54:31;6.10;99.90
45012;DHT22;63444;48.148;11.542;2022-11-15T07:56:58;6.20;99.90
45012;DHT22;63444;48.148;11.542;2022-11-15T07:59:23;6.20;99.90
45012;DHT22;63444;48.148;11.542;2022-11-15T08:01:49;6.20;99.90
45012;DHT22;63444;48.148;11.542;2022-11-15T08:04:15;6.30;99.90
45012;DHT22;63444;48.148;11.542;2022-11-15T08:06:40;6.30;99.90
45012;DHT22;63444;48.148;11.542;2022-11-15T08:09:06;6.40;99.90
45012;DHT22;63444;48.148;11.542;2022-11-15T08:11:32;6.40;99.90
45012;DHT22;63444;48.148;11.542;2022-11-15T08:13:58;6.40;99.90
45012;DHT22;63444;48.148;11.542;2022-11-15T08:16:23;6.50;99.90
45012;DHT22;63444;48.148;11.542;2022-11-15T08:18:49;6.60;99.90
45012;DHT22;63444;48.148;11.542;2022-11-15T08:21:19;6.60;99.90
45012;DHT22;63444;48.148;11.542;2022-11-15T08:23:45;6.70;99.90
45012;DHT22;63444;48.148;11.542;2022-11-15T08:26:10;6.80;99.90
45012;DHT22;63444;48.148;11.542;2022-11-15T08:28:36;6.80;99.90
45012;DHT22;63444;48.148;11.542;2022-11-15T08:31:03;6.90;99.90
45012;DHT22;63444;48.148;11.542;2022-11-15T08:33:29;7.00;99.90
45012;DHT22;63444;48.148;11.542;2022-11-15T08:35:59;7.00;99.90
45012;DHT22;63444;48.148;11.542;2022-11-15T08:38:25;7.20;99.90
45012;DHT22;63444;48.148;11.542;2022-11-15T08:40:52;7.20;99.90
45012;DHT22;63444;48.148;11.542;2022-11-15T08:43:19;7.20;99.90
45012;DHT22;63444;48.148;11.542;2022-11-15T08:45:44;7.40;99.90
45012;DHT22;63444;48.148;11.542;2022-11-15T08:48:10;7.40;99.90
45012;DHT22;63444;48.148;11.542;2022-11-15T08:50:36;7.60;99.90
45012;DHT22;63444;48.148;11.542;2022-11-15T08:53:07;7.60;99.90
45012;DHT22;63444;48.148;11.542;2022-11-15T08:55:36;7.70;99.90
45012;DHT22;63444;48.148;11.542;2022-11-15T08:58:02;7.70;99.90
45012;DHT22;63444;48.148;11.542;2022-11-15T09:00:27;7.80;99.90
45012;DHT22;63444;48.148;11.542;2022-11-15T09:02:53;7.90;99.90
45012;DHT22;63444;48.148;11.542;2022-11-15T09:05:19;8.00;99.90
45012;DHT22;63444;48.148;11.542;2022-11-15T09:07:44;7.90;99.90
45012;DHT22;63444;48.148;11.542;2022-11-15T09:10:10;8.00;99.90
45012;DHT22;63444;48.148;11.542;2022-11-15T09:12:36;8.10;99.90
45012;DHT22;63444;48.148;11.542;2022-11-15T09:15:04;8.20;99.90
45012;DHT22;63444;48.148;11.542;2022-11-15T09:17:30;8.30;99.90
45012;DHT22;63444;48.148;11.542;2022-11-15T09:19:55;8.40;99.90
45012;DHT22;63444;48.148;11.542;2022-11-15T09:22:21;8.50;99.90
45012;DHT22;63444;48.148;11.542;2022-11-15T09:24:46;8.70;99.90
45012;DHT22;63444;48.148;11.542;2022-11-15T09:27:12;8.90;99.90
45012;DHT22;63444;48.148;11.542;2022-11-15T09:29:38;9.20;99.90
45012;DHT22;63444;48.148;11.542;2022-11-15T09:32:04;9.50;99.90
45012;DHT22;63444;48.148;11.542;2022-11-15T09:34:31;9.70;99.90
45012;DHT22;63444;48.148;11.542;2022-11-15T09:36:57;10.00;99.90
45012;DHT22;63444;48.148;11.542;2022-11-15T09:39:23;10.30;99.90
45012;DHT22;63444;48.148;11.542;2022-11-15T09:42:06;10.60;99.90
45012;DHT22;63444;48.148;11.542;2022-11-15T09:50:14;13.10;99.90
45012;DHT22;63444;48.148;11.542;2022-11-15T09:52:44;14.20;98.50
45012;DHT22;63444;48.148;11.542;2022-11-15T09:55:11;15.00;96.50
45012;DHT22;63444;48.148;11.542;2022-11-15T09:58:03;15.70;95.70
45012;DHT22;63444;48.148;11.542;2022-11-15T10:00:35;16.40;94.40
45012;DHT22;63444;48.148;11.542;2022-11-15T10:03:11;16.70;93.40
45012;DHT22;63444;48.148;11.542;2022-11-15T10:05:45;16.90;92.70
45012;DHT22;63444;48.148;11.542;2022-11-15T10:10:59;17.00;91.60
45012;DHT22;63444;48.148;11.542;2022-11-15T10:13:27;17.00;91.30
45012;DHT22;63444;48.148;11.542;2022-11-15T10:16:02;17.10;90.60
45012;DHT22;63444;48.148;11.542;2022-11-15T10:21:21;17.50;90.20
45012;DHT22;63444;48.148;11.542;2022-11-15T10:23:50;17.80;90.00
45012;DHT22;63444;48.148;11.542;2022-11-15T10:26:17;18.30;89.20
45012;DHT22;63444;48.148;11.542;2022-11-15T10:28:43;18.70;87.90
45012;DHT22;63444;48.148;11.542;2022-11-15T10:31:25;19.20;86.80
45012;DHT22;63444;48.148;11.542;2022-11-15T10:33:53;19.40;85.30
45012;DHT22;63444;48.148;11.542;2022-11-15T10:36:23;19.50;85.10
45012;DHT22;63444;48.148;11.542;2022-11-15T10:41:22;19.30;84.80
45012;DHT22;63444;48.148;11.542;2022-11-15T10:46:37;19.30;84.10
45012;DHT22;63444;48.148;11.542;2022-11-15T10:49:20;19.30;83.40
45012;DHT22;63444;48.148;11.542;2022-11-15T10:51:48;19.20;83.00
45012;DHT22;63444;48.148;11.542;2022-11-15T10:54:40;19.20;83.60
45012;DHT22;63444;48.148;11.542;2022-11-15T10:57:12;19.10;83.30
45012;DHT22;63444;48.148;11.542;2022-11-15T10:59:43;19.10;82.30
45012;DHT22;63444;48.148;11.542;2022-11-15T11:04:54;19.00;80.80
45012;DHT22;63444;48.148;11.542;2022-11-15T11:07:22;19.00;81.20
45012;DHT22;63444;48.148;11.542;2022-11-15T11:09:58;19.00;79.80
45012;DHT22;63444;48.148;11.542;2022-11-15T11:12:29;19.00;80.40
45012;DHT22;63444;48.148;11.542;2022-11-15T11:14:58;19.00;80.40
45012;DHT22;63444;48.148;11.542;2022-11-15T11:17:35;19.00;80.60
45012;DHT22;63444;48.148;11.542;2022-11-15T11:22:56;18.70;81.20
45012;DHT22;63444;48.148;11.542;2022-11-15T11:25:40;18.70;80.90
45012;DHT22;63444;48.148;11.542;2022-11-15T11:30:54;18.60;81.00
45012;DHT22;63444;48.148;11.542;2022-11-15T11:33:44;18.60;79.60
45012;DHT22;63444;48.148;11.542;2022-11-15T11:42:01;18.50;81.00
45012;DHT22;63444;48.148;11.542;2022-11-15T11:47:07;18.50;81.20
45012;DHT22;63444;48.148;11.542;2022-11-15T11:49:51;18.60;80.90
45012;DHT22;63444;48.148;11.542;2022-11-15T11:52:28;18.70;80.60
45012;DHT22;63444;48.148;11.542;2022-11-15T11:55:13;18.70;80.00
45012;DHT22;63444;48.148;11.542;2022-11-15T12:00:20;18.80;79.20
45012;DHT22;63444;48.148;11.542;2022-11-15T12:03:22;18.90;79.90
45012;DHT22;63444;48.148;11.542;2022-11-15T12:05:54;19.00;79.60
45012;DHT22;63444;48.148;11.542;2022-11-15T12:08:33;19.30;79.70
45012;DHT22;63444;48.148;11.542;2022-11-15T12:11:14;19.60;78.80
45012;DHT22;63444;48.148;11.542;2022-11-15T12:13:42;20.10;78.50
45012;DHT22;63444;48.148;11.542;2022-11-15T12:16:22;20.60;77.10
45012;DHT22;63444;48.148;11.542;2022-11-15T12:18:52;21.50;75.90
45012;DHT22;63444;48.148;11.542;2022-11-15T12:23:54;24.20;69.40
45012;DHT22;63444;48.148;11.542;2022-11-15T12:26:24;25.40;66.70
45012;DHT22;63444;48.148;11.542;2022-11-15T12:28:55;26.10;64.40
45012;DHT22;63444;48.148;11.542;2022-11-15T12:34:02;27.40;61.60
45012;DHT22;63444;48.148;11.542;2022-11-15T12:36:38;27.80;59.80
45012;DHT22;63444;48.148;11.542;2022-11-15T12:39:15;28.00;58.50
45012;DHT22;63444;48.148;11.542;2022-11-15T13:02:40;24.80;58.70
45012;DHT22;63444;48.148;11.542;2022-11-15T13:05:27;24.00;59.70
45012;DHT22;63444;48.148;11.542;2022-11-15T13:08:07;23.30;61.00
45012;DHT22;63444;48.148;11.542;2022-11-15T13:10:33;22.60;62.30
45012;DHT22;63444;48.148;11.542;2022-11-15T13:13:08;22.00;63.20
45012;DHT22;63444;48.148;11.542;2022-11-15T13:15:53;21.40;64.30
45012;DHT22;63444;48.148;11.542;2022-11-15T13:20:52;20.30;67.30
45012;DHT22;63444;48.148;11.542;2022-11-15T13:23:18;20.00;68.00
45012;DHT22;63444;48.148;11.542;2022-11-15T13:26:12;19.70;68.90
45012;DHT22;63444;48.148;11.542;2022-11-15T13:28:54;19.40;69.90
45012;DHT22;63444;48.148;11.542;2022-11-15T13:31:34;19.10;70.60
45012;DHT22;63444;48.148;11.542;2022-11-15T13:34:48;18.80;71.10
45012;DHT22;63444;48.148;11.542;2022-11-15T13:36:48;18.70;71.90
45012;DHT22;63444;48.148;11.542;2022-11-15T13:39:27;18.50;72.50
45012;DHT22;63444;48.148;11.542;2022-11-15T13:41:53;18.30;73.20
45012;DHT22;63444;48.148;11.542;2022-11-15T13:44:27;18.10;73.30
45012;DHT22;63444;48.148;11.542;2022-11-15T13:47:12;18.10;74.00
45012;DHT22;63444;48.148;11.542;2022-11-15T13:49:38;17.90;74.40
45012;DHT22;63444;48.148;11.542;2022-11-15T13:52:06;17.80;74.70
45012;DHT22;63444;48.148;11.542;2022-11-15T13:54:46;17.80;75.10
45012;DHT22;63444;48.148;11.542;2022-11-15T13:57:26;17.70;75.50
45012;DHT22;63444;48.148;11.542;2022-11-15T13:59:59;17.60;75.80
45012;DHT22;63444;48.148;11.542;2022-11-15T14:02:34;17.50;76.10
45012;DHT22;63444;48.148;11.542;2022-11-15T14:05:18;17.30;76.60
45012;DHT22;63444;48.148;11.542;2022-11-15T14:07:58;17.30;77.10
45012;DHT22;63444;48.148;11.542;2022-11-15T14:10:30;17.20;77.40
45012;DHT22;63444;48.148;11.542;2022-11-15T14:12:56;17.10;77.60
45012;DHT22;63444;48.148;11.542;2022-11-15T14:15:33;17.10;78.00
45012;DHT22;63444;48.148;11.542;2022-11-15T14:18:00;17.00;78.40
45012;DHT22;63444;48.148;11.542;2022-11-15T14:22:54;16.90;78.60
45012;DHT22;63444;48.148;11.542;2022-11-15T14:25:25;16.90;79.70
45012;DHT22;63444;48.148;11.542;2022-11-15T14:28:12;16.80;80.10
45012;DHT22;63444;48.148;11.542;2022-11-15T14:30:40;16.80;80.30
45012;DHT22;63444;48.148;11.542;2022-11-15T14:33:28;16.70;80.50
45012;DHT22;63444;48.148;11.542;2022-11-15T14:35:55;16.70;81.10
45012;DHT22;63444;48.148;11.542;2022-11-15T14:38:23;16.60;82.20
45012;DHT22;63444;48.148;11.542;2022-11-15T14:40:48;16.50;82.60
45012;DHT22;63444;48.148;11.542;2022-11-15T14:43:14;16.50;83.40
45012;DHT22;63444;48.148;11.542;2022-11-15T14:45:40;16.40;84.30
45012;DHT22;63444;48.148;11.542;2022-11-15T14:48:06;16.30;85.40
45012;DHT22;63444;48.148;11.542;2022-11-15T14:50:32;16.20;86.20
45012;DHT22;63444;48.148;11.542;2022-11-15T14:52:59;16.20;87.40
45012;DHT22;63444;48.148;11.542;2022-11-15T14:55:27;16.10;88.80
45012;DHT22;63444;48.148;11.542;2022-11-15T14:57:54;16.00;89.60
45012;DHT22;63444;48.148;11.542;2022-11-15T15:00:22;16.00;90.20
45012;DHT22;63444;48.148;11.542;2022-11-15T15:02:48;15.90;90.60
45012;DHT22;63444;48.148;11.542;2022-11-15T15:05:23;15.80;91.00
45012;DHT22;63444;48.148;11.542;2022-11-15T15:07:49;15.80;91.60
45012;DHT22;63444;48.148;11.542;2022-11-15T15:10:16;15.70;92.30
45012;DHT22;63444;48.148;11.542;2022-11-15T15:12:41;15.60;92.30
45012;DHT22;63444;48.148;11.542;2022-11-15T15:15:16;15.50;92.80
45012;DHT22;63444;48.148;11.542;2022-11-15T15:17:42;15.40;93.20
45012;DHT22;63444;48.148;11.542;2022-11-15T15:20:08;15.30;93.60
45012;DHT22;63444;48.148;11.542;2022-11-15T15:22:34;15.30;94.00
45012;DHT22;63444;48.148;11.542;2022-11-15T15:25:01;15.20;94.20
45012;DHT22;63444;48.148;11.542;2022-11-15T15:27:29;15.20;94.60
45012;DHT22;63444;48.148;11.542;2022-11-15T15:29:54;15.10;94.90
45012;DHT22;63444;48.148;11.542;2022-11-15T15:32:20;15.00;95.10
45012;DHT22;63444;48.148;11.542;2022-11-15T15:34:46;15.00;95.70
45012;DHT22;63444;48.148;11.542;2022-11-15T15:37:23;14.90;95.70
45012;DHT22;63444;48.148;11.542;2022-11-15T15:39:55;14.80;95.70
45012;DHT22;63444;48.148;11.542;2022-11-15T15:42:22;14.70;95.90
45012;DHT22;63444;48.148;11.542;2022-11-15T15:44:48;14.60;96.00
45012;DHT22;63444;48.148;11.542;2022-11-15T15:47:22;14.50;96.30
45012;DHT22;63444;48.148;11.542;2022-11-15T15:49:50;14.40;96.60
45012;DHT22;63444;48.148;11.542;2022-11-15T15:52:16;14.40;96.80
45012;DHT22;63444;48.148;11.542;2022-11-15T15:54:42;14.30;97.00
45012;DHT22;63444;48.148;11.542;2022-11-15T15:57:10;14.20;97.20
45012;DHT22;63444;48.148;11.542;2022-11-15T15:59:38;14.20;97.40
45012;DHT22;63444;48.148;11.542;2022-11-15T16:02:03;14.10;97.50
45012;DHT22;63444;48.148;11.542;2022-11-15T16:04:29;14.00;97.80
45012;DHT22;63444;48.148;11.542;2022-11-15T16:06:59;14.10;98.00
45012;DHT22;63444;48.148;11.542;2022-11-15T16:09:24;14.00;98.00
45012;DHT22;63444;48.148;11.542;2022-11-15T16:12:08;13.90;98.10
45012;DHT22;63444;48.148;11.542;2022-11-15T16:14:34;13.90;98.40
45012;DHT22;63444;48.148;11.542;2022-11-15T16:17:00;13.90;98.50
45012;DHT22;63444;48.148;11.542;2022-11-15T16:19:26;13.80;98.50
45012;DHT22;63444;48.148;11.542;2022-11-15T16:21:51;13.80;98.60
45012;DHT22;63444;48.148;11.542;2022-11-15T16:24:18;13.70;98.80
45012;DHT22;63444;48.148;11.542;2022-11-15T16:26:44;13.70;99.10
45012;DHT22;63444;48.148;11.542;2022-11-15T16:29:10;13.70;99.10
45012;DHT22;63444;48.148;11.542;2022-11-15T16:31:37;13.60;99.30
45012;DHT22;63444;48.148;11.542;2022-11-15T16:34:03;13.60;99.40
45012;DHT22;63444;48.148;11.542;2022-11-15T16:36:30;13.50;99.50
45012;DHT22;63444;48.148;11.542;2022-11-15T16:38:58;13.50;99.70
45012;DHT22;63444;48.148;11.542;2022-11-15T16:41:24;13.40;99.80
45012;DHT22;63444;48.148;11.542;2022-11-15T16:43:49;13.30;99.90
45012;DHT22;63444;48.148;11.542;2022-11-15T16:46:20;13.30;99.90
45012;DHT22;63444;48.148;11.542;2022-11-15T16:48:47;13.30;99.90
45012;DHT22;63444;48.148;11.542;2022-11-15T16:51:13;13.30;99.90
45012;DHT22;63444;48.148;11.542;2022-11-15T16:53:41;13.20;99.90
45012;DHT22;63444;48.148;11.542;2022-11-15T16:56:27;13.10;99.90
45012;DHT22;63444;48.148;11.542;2022-11-15T16:58:57;13.10;99.90
45012;DHT22;63444;48.148;11.542;2022-11-15T17:01:29;13.00;99.90
45012;DHT22;63444;48.148;11.542;2022-11-15T17:03:55;13.00;99.90
45012;DHT22;63444;48.148;11.542;2022-11-15T17:06:23;12.90;99.90
45012;DHT22;63444;48.148;11.542;2022-11-15T17:08:49;12.90;99.90
45012;DHT22;63444;48.148;11.542;2022-11-15T17:11:17;12.90;99.90